Time;durP1;ratioP1;P1;durP2;ratioP2;P2;SDS_P1;SDS_P2;PMS_P1;PMS_P2;Temp;Humidity;BMP_temperature;BMP_pressure;BME280_temperature;BME280_humidity;BME280_pressure;Samples;Min_cycle;Max_cycle;Signal;HPM_P1;HPM_P2
2022/06/26 00:01:38;;;;;;;13.20;1.83;;;;;;;18.55;64.90;99783.41;6094917;23;20504;-84
2022/06/26 00:04:03;;;;;;;7.22;1.60;;;;;;;18.59;64.55;99784.72;6093829;23;20033;-83
2022/06/26 00:06:29;;;;;;;12.50;1.90;;;;;;;18.40;65.19;99790.44;6093736;23;20098;-83
2022/06/26 00:08:55;;;;;;;8.80;1.80;;;;;;;18.43;64.95;99774.16;6094022;23;20057;-84
2022/06/26 00:11:20;;;;;;;11.88;2.45;;;;;;;18.39;65.26;99778.16;6094956;23;20038;-84
2022/06/26 00:13:45;;;;;;;10.75;1.27;;;;;;;18.40;64.97;99778.00;6093927;23;20396;-82
2022/06/26 00:16:11;;;;;;;6.07;1.30;;;;;;;18.35;65.57;99777.66;6094664;23;20034;-82
2022/06/26 00:18:37;;;;;;;7.13;1.17;;;;;;;18.30;65.20;99769.38;6095748;23;20057;-83
2022/06/26 00:21:03;;;;;;;11.00;1.90;;;;;;;18.78;64.23;99764.06;6095164;23;20014;-82
2022/06/26 00:23:28;;;;;;;5.20;1.50;;;;;;;18.33;64.86;99765.56;6093148;23;20345;-82
2022/06/26 00:25:54;;;;;;;12.65;1.67;;;;;;;18.26;65.65;99764.56;6094904;23;20017;-82
2022/06/26 00:28:19;;;;;;;10.20;1.13;;;;;;;18.71;63.95;99763.09;6095157;23;20006;-82
2022/06/26 00:30:45;;;;;;;8.80;1.35;;;;;;;18.54;64.53;99768.50;6095051;23;20325;-83
2022/06/26 00:33:11;;;;;;;5.03;1.20;;;;;;;18.26;65.36;99767.22;6093791;23;20007;-83
2022/06/26 00:35:36;;;;;;;6.45;2.05;;;;;;;18.60;64.49;99774.91;6095815;23;20022;-82
2022/06/26 00:38:01;;;;;;;7.55;1.55;;;;;;;18.59;64.07;99767.97;6092249;23;20050;-83
2022/06/26 00:40:27;;;;;;;7.22;1.60;;;;;;;18.55;64.39;99764.00;6095197;23;20370;-82
2022/06/26 00:42:52;;;;;;;5.32;1.33;;;;;;;18.96;62.77;99763.84;6094145;23;20006;-83
2022/06/26 00:45:17;;;;;;;11.85;1.63;;;;;;;18.74;63.16;99765.41;6095479;23;20006;-83
2022/06/26 00:47:43;;;;;;;7.45;1.40;;;;;;;18.37;64.85;99767.69;6094986;23;20061;-83
2022/06/26 00:50:09;;;;;;;10.60;1.55;;;;;;;18.49;64.43;99767.34;6095580;23;20003;-83
2022/06/26 00:52:35;;;;;;;8.30;1.35;;;;;;;18.98;62.93;99770.66;6094551;23;20034;-82
2022/06/26 00:55:02;;;;;;;13.85;1.80;;;;;;;18.73;63.69;99769.88;6095285;23;20061;-82
2022/06/26 00:57:28;;;;;;;10.95;1.83;;;;;;;18.74;62.85;99765.41;6093925;23;20053;-82
2022/06/26 00:59:55;;;;;;;8.25;1.58;;;;;;;18.62;64.11;99767.59;6097167;23;20136;-83
2022/06/26 01:02:20;;;;;;;7.35;1.15;;;;;;;18.38;64.55;99768.50;6094166;23;20101;-83
2022/06/26 01:04:46;;;;;;;12.65;1.58;;;;;;;18.53;63.84;99760.69;6096900;23;20453;-83
2022/06/26 01:07:11;;;;;;;7.15;1.70;;;;;;;18.51;63.80;99760.03;6096702;23;20010;-83
2022/06/26 01:09:37;;;;;;;8.23;1.95;;;;;;;18.18;65.43;99770.72;6096617;23;20006;-82
2022/06/26 01:12:02;;;;;;;7.90;1.15;;;;;;;17.99;66.28;99758.63;6096095;23;20006;-82
2022/06/26 01:14:30;;;;;;;9.20;1.98;;;;;;;18.60;64.63;99759.81;6097091;23;20329;-82
2022/06/26 01:16:55;;;;;;;11.52;2.55;;;;;;;18.59;63.73;99762.66;6096480;23;20451;-82
2022/06/26 01:19:21;;;;;;;7.53;1.58;;;;;;;18.35;64.15;99766.22;6097426;23;20078;-84
2022/06/26 01:21:46;;;;;;;7.85;1.15;;;;;;;15.37;81.80;99772.38;6095709;23;20477;-83
2022/06/26 01:24:13;;;;;;;12.45;1.63;;;;;;;14.82;92.18;99775.91;6097163;23;20442;-83
2022/06/26 01:26:40;;;;;;;7.00;1.30;;;;;;;14.72;98.19;99769.84;6096343;23;19994;-82
2022/06/26 01:29:06;;;;;;;7.07;1.13;;;;;;;14.57;100.00;99769.47;6096010;23;20006;-83
2022/06/26 01:31:34;;;;;;;11.48;1.67;;;;;;;14.60;100.00;99763.91;6096389;23;20006;-83
2022/06/26 01:34:01;;;;;;;7.22;1.40;;;;;;;14.63;100.00;99768.94;6095384;23;19998;-82
2022/06/26 01:36:27;;;;;;;11.00;1.63;;;;;;;14.60;100.00;99771.03;6093603;23;20017;-82
2022/06/26 01:38:52;;;;;;;6.88;1.48;;;;;;;14.64;100.00;99770.56;6096989;23;20003;-82
2022/06/26 01:41:17;;;;;;;21.20;2.33;;;;;;;14.70;100.00;99766.53;6096010;23;20397;-82
2022/06/26 01:43:43;;;;;;;10.80;2.20;;;;;;;14.63;100.00;99768.94;6096943;23;20010;-83
2022/06/26 01:46:08;;;;;;;9.70;1.27;;;;;;;14.75;100.00;99777.50;6096487;23;20351;-83
2022/06/26 01:48:37;;;;;;;9.07;1.10;;;;;;;14.55;100.00;99771.41;6096831;23;20002;-83
2022/06/26 01:51:03;;;;;;;6.22;1.50;;;;;;;14.58;100.00;99772.97;6097026;23;20009;-83
2022/06/26 01:53:29;;;;;;;7.78;1.50;;;;;;;14.55;100.00;99768.75;6096088;23;20429;-83
2022/06/26 01:55:54;;;;;;;5.93;1.27;;;;;;;14.55;100.00;99776.69;6097074;23;20002;-84
2022/06/26 01:58:20;;;;;;;10.65;1.92;;;;;;;14.46;100.00;99775.75;6096158;23;20381;-83
2022/06/26 02:00:46;;;;;;;6.75;1.92;;;;;;;14.56;100.00;99766.97;6096385;23;20013;-83
2022/06/26 02:03:13;;;;;;;13.38;1.80;;;;;;;14.52;100.00;99763.78;6095787;23;20014;-83
2022/06/26 02:05:39;;;;;;;6.82;1.15;;;;;;;14.61;100.00;99759.47;6095083;23;20003;-83
2022/06/26 02:08:06;;;;;;;7.22;2.00;;;;;;;14.66;100.00;99763.34;6096883;23;20010;-83
2022/06/26 02:16:21;;;;;;;9.60;1.77;;;;;;;14.52;100.00;99769.06;6095940;23;20017;-83
2022/06/26 02:18:49;;;;;;;9.43;1.90;;;;;;;14.53;100.00;99764.63;6095053;23;20073;-82
2022/06/26 02:21:17;;;;;;;13.30;1.88;;;;;;;14.45;100.00;99775.91;6096035;23;20425;-83
2022/06/26 02:23:44;;;;;;;19.80;2.88;;;;;;;14.53;100.00;99765.44;6119426;23;20303;-83
2022/06/26 02:26:10;;;;;;;8.15;1.55;;;;;;;14.73;100.00;99768.88;6096115;23;20444;-83
2022/06/26 02:28:37;;;;;;;7.43;1.38;;;;;;;14.89;100.00;99770.88;6096729;23;20002;-83
2022/06/26 02:31:03;;;;;;;14.90;2.33;;;;;;;14.81;100.00;99768.13;6095454;23;20002;-83
2022/06/26 02:33:29;;;;;;;9.90;1.70;;;;;;;14.74;100.00;99757.31;6095354;23;20040;-83
2022/06/26 02:35:55;;;;;;;9.20;2.15;;;;;;;14.79;100.00;99767.44;6096285;23;20041;-83
2022/06/26 02:38:22;;;;;;;13.88;2.45;;;;;;;14.71;100.00;99767.34;6095189;23;20089;-83
2022/06/26 02:40:48;;;;;;;6.97;1.70;;;;;;;14.76;100.00;99762.47;6096366;23;20038;-83
2022/06/26 02:43:14;;;;;;;8.88;1.80;;;;;;;14.82;100.00;99756.59;6095648;23;20029;-83
2022/06/26 02:45:39;;;;;;;11.35;1.60;;;;;;;14.95;100.00;99757.06;6096352;23;20002;-83
2022/06/26 02:48:05;;;;;;;15.25;2.08;;;;;;;14.75;100.00;99766.06;6095907;23;19995;-83
2022/06/26 02:50:30;;;;;;;12.95;1.27;;;;;;;14.86;100.00;99764.06;6096266;23;20453;-83
2022/06/26 02:52:56;;;;;;;6.18;1.02;;;;;;;15.14;100.00;99757.94;6095825;23;20077;-83
2022/06/26 02:55:21;;;;;;;10.82;1.98;;;;;;;14.95;100.00;99767.66;6119192;23;20030;-83
2022/06/26 02:57:47;;;;;;;10.07;1.70;;;;;;;15.12;100.00;99762.53;6095308;23;20002;-83
2022/06/26 03:00:13;;;;;;;12.93;1.73;;;;;;;15.18;100.00;99762.75;6095080;23;19999;-83
2022/06/26 03:02:39;;;;;;;9.40;1.42;;;;;;;14.97;100.00;99770.13;6095449;23;20010;-83
2022/06/26 03:05:05;;;;;;;10.48;1.38;;;;;;;15.06;100.00;99764.78;6094874;23;20006;-83
2022/06/26 03:07:31;;;;;;;12.60;2.30;;;;;;;14.95;100.00;99767.66;6095548;23;20434;-83
2022/06/26 03:09:56;;;;;;;12.32;1.35;;;;;;;14.84;100.00;99765.19;6095834;23;20269;-83
2022/06/26 03:12:21;;;;;;;12.40;2.22;;;;;;;14.78;100.00;99765.78;6095211;23;20007;-83
2022/06/26 03:14:47;;;;;;;12.60;1.60;;;;;;;14.74;100.00;99769.72;6094701;23;20002;-83
2022/06/26 03:17:12;;;;;;;10.00;1.73;;;;;;;14.71;100.00;99768.19;6094839;23;20303;-83
2022/06/26 03:19:38;;;;;;;9.70;2.00;;;;;;;14.87;100.00;99770.19;6095880;23;20002;-83
2022/06/26 03:22:03;;;;;;;10.63;1.95;;;;;;;14.77;100.00;99764.97;6094840;23;20025;-83
2022/06/26 03:24:29;;;;;;;12.38;1.63;;;;;;;14.73;100.00;99758.31;6095934;23;20095;-83
2022/06/26 03:26:54;;;;;;;10.25;1.65;;;;;;;14.63;100.00;99758.34;6094948;23;20007;-83
2022/06/26 03:29:19;;;;;;;16.58;1.75;;;;;;;14.75;100.00;99756.34;6094665;23;20081;-83
2022/06/26 03:31:45;;;;;;;8.68;1.63;;;;;;;14.99;100.00;99763.72;6095173;23;20014;-83
2022/06/26 03:34:10;;;;;;;10.02;1.90;;;;;;;14.75;100.00;99759.00;6094366;23;20007;-83
2022/06/26 03:36:35;;;;;;;11.90;1.73;;;;;;;14.98;100.00;99756.75;6095657;23;20003;-82
2022/06/26 03:39:02;;;;;;;12.00;1.73;;;;;;;14.85;100.00;99759.78;6095824;23;20009;-82
2022/06/26 03:41:28;;;;;;;11.38;1.65;;;;;;;14.85;100.00;99769.53;6094781;23;20006;-83
2022/06/26 03:43:53;;;;;;;11.68;2.33;;;;;;;14.87;100.00;99763.09;6094093;23;20310;-83
2022/06/26 03:46:19;;;;;;;14.90;2.42;;;;;;;15.12;100.00;99770.47;6096082;23;20007;-82
2022/06/26 03:48:45;;;;;;;9.20;1.55;;;;;;;15.22;100.00;99774.69;6094727;23;20013;-82
2022/06/26 03:51:10;;;;;;;11.27;2.70;;;;;;;15.36;100.00;99775.97;6095691;23;20064;-83
2022/06/26 03:53:36;;;;;;;7.80;1.77;;;;;;;15.64;100.00;99790.00;6117883;23;20064;-83
2022/06/26 03:56:03;;;;;;;15.07;2.50;;;;;;;15.50;100.00;99787.88;6095090;23;20002;-83
2022/06/26 03:58:29;;;;;;;15.13;2.78;;;;;;;15.25;100.00;99784.97;6095011;23;20062;-82
2022/06/26 04:00:54;;;;;;;20.20;3.58;;;;;;;15.57;100.00;99791.56;6094205;23;20414;-82
2022/06/26 04:03:20;;;;;;;14.93;2.22;;;;;;;15.45;100.00;99785.69;6093402;23;20042;-82
2022/06/26 04:05:46;;;;;;;16.17;2.55;;;;;;;15.30;100.00;99796.94;6095311;23;20006;-83
2022/06/26 04:08:11;;;;;;;8.48;1.50;;;;;;;15.49;100.00;99794.16;6095729;23;20085;-83
2022/06/26 04:10:37;;;;;;;11.13;1.70;;;;;;;15.31;100.00;99803.91;6095207;23;20029;-82
2022/06/26 04:13:05;;;;;;;16.80;2.17;;;;;;;15.61;100.00;99805.34;6094671;23;20374;-83
2022/06/26 04:15:32;;;;;;;11.50;2.10;;;;;;;15.70;100.00;99809.72;6118159;23;20077;-83
2022/06/26 04:17:58;;;;;;;10.77;1.75;;;;;;;15.63;100.00;99806.84;6095233;23;20006;-83
2022/06/26 04:20:24;;;;;;;11.80;1.50;;;;;;;15.77;100.00;99812.63;6095845;23;20002;-82
2022/06/26 04:22:55;;;;;;;12.27;1.40;;;;;;;15.51;100.00;99815.16;6094803;23;20003;-83
2022/06/26 04:25:21;;;;;;;16.42;2.45;;;;;;;15.59;100.00;99810.78;6095622;23;20081;-83
2022/06/26 04:27:46;;;;;;;8.88;1.48;;;;;;;15.45;100.00;99827.19;6092678;23;20125;-83
2022/06/26 04:30:11;;;;;;;11.10;1.95;;;;;;;15.59;100.00;99817.88;6095465;23;20057;-83
2022/06/26 04:32:37;;;;;;;10.15;1.45;;;;;;;15.80;100.00;99818.44;6093598;23;20006;-83
2022/06/26 04:35:02;;;;;;;15.63;1.77;;;;;;;15.70;100.00;99830.91;6094816;23;20003;-83
2022/06/26 04:37:28;;;;;;;6.65;1.58;;;;;;;15.69;100.00;99823.94;6094535;23;20010;-84
2022/06/26 04:39:53;;;;;;;11.65;1.48;;;;;;;15.75;100.00;99823.34;6095357;23;20009;-83
2022/06/26 04:42:18;;;;;;;18.17;1.58;;;;;;;15.84;100.00;99822.44;6093737;23;20042;-83
2022/06/26 04:44:44;;;;;;;9.77;2.05;;;;;;;15.71;100.00;99824.59;6095523;23;20025;-83
2022/06/26 04:47:09;;;;;;;14.85;2.22;;;;;;;16.01;100.00;99812.81;6094137;23;20100;-83
2022/06/26 04:49:34;;;;;;;13.75;2.20;;;;;;;16.39;100.00;99817.88;6118348;23;20002;-83
2022/06/26 04:52:00;;;;;;;11.85;2.42;;;;;;;16.22;100.00;99831.00;6095284;23;20081;-83
2022/06/26 04:54:25;;;;;;;12.55;1.58;;;;;;;16.34;98.91;99828.94;6095441;23;20437;-83
2022/06/26 04:56:50;;;;;;;8.43;1.83;;;;;;;16.36;98.35;99828.78;6095162;23;20418;-83
2022/06/26 04:59:15;;;;;;;5.47;1.77;;;;;;;16.11;100.00;99823.31;6094757;23;20377;-83
2022/06/26 05:01:41;;;;;;;6.80;1.40;;;;;;;16.70;95.68;99833.28;6093319;23;20371;-83
2022/06/26 05:04:06;;;;;;;6.38;1.63;;;;;;;16.57;96.11;99823.94;6093645;23;20440;-83
2022/06/26 05:06:31;;;;;;;14.63;2.13;;;;;;;16.59;95.16;99832.56;6091566;23;20342;-83
2022/06/26 05:08:57;;;;;;;9.15;1.65;;;;;;;16.35;97.38;99830.63;6092910;23;20082;-83
2022/06/26 05:11:22;;;;;;;9.60;1.77;;;;;;;16.30;97.92;99826.75;6090186;23;20010;-82
2022/06/26 05:13:48;;;;;;;9.20;1.17;;;;;;;16.42;97.79;99836.13;6088827;23;20085;-82
2022/06/26 05:16:13;;;;;;;13.02;1.80;;;;;;;16.52;96.94;99842.13;6089254;23;20007;-81
2022/06/26 05:18:38;;;;;;;9.07;1.35;;;;;;;16.72;96.32;99844.56;6086872;23;20006;-82
2022/06/26 05:21:04;;;;;;;7.40;1.65;;;;;;;16.93;95.39;99847.69;6088779;23;20307;-82
2022/06/26 05:23:29;;;;;;;11.45;2.45;;;;;;;16.56;98.73;99840.81;6088490;23;20433;-82
2022/06/26 05:25:54;;;;;;;15.23;1.60;;;;;;;16.71;96.97;99848.22;6112091;23;20009;-82
2022/06/26 05:28:20;;;;;;;9.45;2.65;;;;;;;16.72;97.77;99841.91;6088428;23;20002;-82
2022/06/26 05:30:45;;;;;;;7.97;1.70;;;;;;;16.64;98.14;99843.53;6088337;23;20014;-82
2022/06/26 05:33:11;;;;;;;7.70;2.30;;;;;;;16.77;98.23;99852.88;6088089;23;20335;-84
2022/06/26 05:35:36;;;;;;;12.15;1.63;;;;;;;16.76;98.19;99852.03;6085899;23;20089;-83
2022/06/26 05:38:02;;;;;;;7.95;1.40;;;;;;;17.11;95.27;99857.38;6089092;23;20016;-83
2022/06/26 05:40:28;;;;;;;13.88;2.25;;;;;;;17.09;96.10;99854.88;6088571;23;20013;-83
2022/06/26 05:42:54;;;;;;;12.55;1.67;;;;;;;16.95;97.25;99855.50;6089010;23;20010;-83
2022/06/26 05:45:20;;;;;;;11.13;2.00;;;;;;;17.04;96.54;99863.31;6088887;23;20011;-83
2022/06/26 05:47:45;;;;;;;13.20;1.33;;;;;;;16.31;100.00;99863.72;6089734;23;20061;-83
2022/06/26 05:50:11;;;;;;;8.50;1.98;;;;;;;16.74;98.71;99861.97;6089564;23;20430;-83
2022/06/26 05:52:36;;;;;;;8.68;1.50;;;;;;;17.02;96.63;99865.31;6090471;23;20370;-83
2022/06/26 05:55:01;;;;;;;8.85;1.42;;;;;;;16.98;97.80;99863.97;6090404;23;20081;-83
2022/06/26 05:57:27;;;;;;;7.65;1.85;;;;;;;17.10;96.67;99863.66;6094065;23;20064;-83
2022/06/26 05:59:52;;;;;;;11.75;2.85;;;;;;;16.63;99.74;99863.06;6096176;23;20081;-83
2022/06/26 06:02:17;;;;;;;14.40;1.92;;;;;;;16.58;100.00;99854.75;6094642;23;20421;-82
2022/06/26 06:04:43;;;;;;;12.00;2.13;;;;;;;16.75;100.00;99865.47;6094035;23;20002;-83
2022/06/26 06:07:08;;;;;;;8.38;1.50;;;;;;;17.12;99.58;99865.19;6094539;23;20032;-83
2022/06/26 06:09:34;;;;;;;9.30;1.50;;;;;;;17.37;99.18;99874.03;6094694;23;20003;-83
2022/06/26 06:11:59;;;;;;;5.85;1.23;;;;;;;17.36;99.11;99875.03;6118189;23;20017;-83
2022/06/26 06:14:25;;;;;;;9.13;1.98;;;;;;;17.54;98.14;99877.56;6094279;23;20035;-83
2022/06/26 06:16:50;;;;;;;16.00;2.55;;;;;;;18.40;92.27;99879.00;6096464;23;20020;-83
2022/06/26 06:19:15;;;;;;;6.85;2.17;;;;;;;18.72;87.87;99882.59;6095751;23;20006;-83
2022/06/26 06:21:41;;;;;;;11.48;1.60;;;;;;;18.96;86.30;99876.41;6096465;23;20426;-83
2022/06/26 06:24:07;;;;;;;11.50;1.90;;;;;;;19.42;82.54;99873.03;6095868;23;20002;-83
2022/06/26 06:26:32;;;;;;;5.90;1.30;;;;;;;19.66;79.49;99880.03;6096177;23;20003;-84
2022/06/26 06:28:58;;;;;;;7.00;1.33;;;;;;;19.99;76.15;99885.19;6095594;23;20049;-83
2022/06/26 06:31:24;;;;;;;10.75;2.53;;;;;;;20.11;73.55;99881.09;6096053;23;20029;-83
2022/06/26 06:33:49;;;;;;;6.80;1.48;;;;;;;18.81;77.11;99883.44;6094542;23;20337;-83
2022/06/26 06:36:15;;;;;;;12.45;2.00;;;;;;;18.67;79.04;99892.91;6092779;23;20021;-83
2022/06/26 06:38:41;;;;;;;10.85;1.50;;;;;;;19.29;75.62;99892.22;6094477;23;20024;-83
2022/06/26 06:41:06;;;;;;;10.25;1.65;;;;;;;20.02;71.57;99895.47;6095197;23;20009;-83
2022/06/26 06:43:32;;;;;;;12.52;1.80;;;;;;;20.41;68.88;99889.97;6094839;23;20014;-83
2022/06/26 06:45:57;;;;;;;8.13;1.45;;;;;;;19.26;72.38;99899.75;6095126;23;20145;-82
2022/06/26 06:48:24;;;;;;;10.82;1.60;;;;;;;19.96;69.97;99893.53;6094958;23;20307;-81
2022/06/26 06:50:51;;;;;;;10.32;1.50;;;;;;;19.33;71.93;99906.88;6093741;23;20073;-82
2022/06/26 06:53:17;;;;;;;8.85;1.48;;;;;;;19.33;72.44;99906.88;6094813;23;20468;-81
2022/06/26 06:55:43;;;;;;;11.60;1.77;;;;;;;18.62;75.95;99913.84;6095209;23;20078;-82
2022/06/26 06:58:08;;;;;;;13.57;1.65;;;;;;;17.80;82.87;99916.47;6094915;23;20083;-82
2022/06/26 07:00:34;;;;;;;8.57;1.50;;;;;;;18.58;79.44;99917.84;6095023;23;20002;-82
2022/06/26 07:03:03;;;;;;;10.45;1.73;;;;;;;20.58;68.05;99917.34;6094645;23;20018;-82
2022/06/26 07:05:30;;;;;;;8.07;1.63;;;;;;;22.79;57.82;99915.34;6094457;23;20033;-82
2022/06/26 07:07:55;;;;;;;6.88;1.40;;;;;;;24.01;52.48;99915.66;6092903;23;20010;-82
2022/06/26 07:10:21;;;;;;;14.95;2.88;;;;;;;24.96;48.27;99908.25;6094908;23;20421;-82
2022/06/26 07:12:57;;;;;;;8.98;2.65;;;;;;;25.76;46.01;99918.66;6117411;23;20002;-82
2022/06/26 07:15:23;;;;;;;7.65;1.65;;;;;;;25.14;46.86;99924.50;6094800;23;20010;-83
2022/06/26 07:17:49;;;;;;;10.88;1.50;;;;;;;26.45;43.88;99922.34;6094627;23;20073;-82
2022/06/26 07:20:14;;;;;;;7.63;1.88;;;;;;;25.58;44.74;99916.69;6094416;23;20006;-83
2022/06/26 07:22:40;;;;;;;6.63;1.30;;;;;;;26.88;42.50;99920.75;6094301;23;20438;-83
2022/06/26 07:25:06;;;;;;;7.32;1.40;;;;;;;25.09;46.14;99918.91;6094601;23;20018;-82
2022/06/26 07:27:31;;;;;;;10.93;1.92;;;;;;;23.33;50.89;99936.06;6094718;23;20011;-82
2022/06/26 07:29:57;;;;;;;10.95;2.08;;;;;;;22.95;51.80;99936.44;6094656;23;20526;-82
2022/06/26 07:32:22;;;;;;;7.88;1.73;;;;;;;23.51;50.12;99927.47;6094065;23;20006;-82
2022/06/26 07:34:48;;;;;;;9.10;1.80;;;;;;;23.90;49.39;99933.19;6094095;23;20404;-82
2022/06/26 07:37:13;;;;;;;7.78;1.85;;;;;;;23.50;49.99;99925.84;6094173;23;20006;-83
2022/06/26 07:39:38;;;;;;;11.73;2.08;;;;;;;24.55;48.68;99922.75;6093895;23;20013;-82
2022/06/26 07:42:04;;;;;;;10.95;1.73;;;;;;;25.28;47.05;99932.56;6094248;23;20188;-82
2022/06/26 07:44:30;;;;;;;8.65;1.65;;;;;;;26.94;42.74;99933.31;6094305;23;20002;-82
2022/06/26 07:46:57;;;;;;;12.52;2.33;;;;;;;25.48;44.81;99927.91;6093889;23;20013;-83
2022/06/26 07:49:23;;;;;;;9.95;1.60;;;;;;;26.68;43.50;99934.41;6093775;23;20006;-82
2022/06/26 07:51:48;;;;;;;8.18;1.98;;;;;;;25.35;45.78;99952.13;6095526;23;20450;-82
2022/06/26 07:54:14;;;;;;;10.32;2.78;;;;;;;24.17;47.41;99960.03;6095796;23;20030;-82
2022/06/26 07:56:39;;;;;;;7.95;1.55;;;;;;;24.58;47.58;99957.22;6093716;23;20374;-82
2022/06/26 07:59:05;;;;;;;10.85;1.75;;;;;;;24.99;45.80;99961.50;6095109;23;20007;-82
2022/06/26 08:01:31;;;;;;;19.73;2.60;;;;;;;23.41;47.89;99961.84;6095304;23;20010;-82
2022/06/26 08:03:56;;;;;;;7.43;1.70;;;;;;;23.62;48.94;99950.19;6095782;23;20025;-82
2022/06/26 08:06:22;;;;;;;12.05;2.55;;;;;;;25.70;45.63;99947.25;6094556;23;20307;-83
2022/06/26 08:08:47;;;;;;;10.18;1.80;;;;;;;27.28;42.50;99944.56;6093586;23;20010;-81
2022/06/26 08:11:13;;;;;;;10.85;1.80;;;;;;;27.72;39.94;99947.13;6092786;23;20038;-80
2022/06/26 08:13:39;;;;;;;11.75;3.45;;;;;;;29.54;36.83;99937.41;6095217;23;20342;-83
2022/06/26 08:16:05;;;;;;;9.98;2.53;;;;;;;28.86;37.56;99937.06;6094461;23;20064;-82
2022/06/26 08:18:30;;;;;;;9.68;1.80;;;;;;;28.41;36.17;99951.09;6094883;23;20009;-83
2022/06/26 08:20:56;;;;;;;12.45;2.00;;;;;;;27.00;39.36;99939.69;6094778;23;20011;-82
2022/06/26 08:23:21;;;;;;;11.98;2.05;;;;;;;26.39;40.56;99939.38;6094753;23;20010;-83
2022/06/26 08:25:47;;;;;;;8.57;1.88;;;;;;;26.39;40.55;99949.31;6092109;23;20003;-82
2022/06/26 08:28:13;;;;;;;7.15;1.60;;;;;;;25.28;42.36;99948.66;6094760;23;20025;-82
2022/06/26 08:30:38;;;;;;;12.02;4.07;;;;;;;25.27;42.29;99947.00;6095132;23;20093;-83
2022/06/26 08:33:04;;;;;;;10.70;2.13;;;;;;;24.94;43.06;99953.25;6095019;23;20003;-83
2022/06/26 08:35:29;;;;;;;8.00;1.90;;;;;;;24.04;44.56;99953.63;6094764;23;20036;-82
2022/06/26 08:37:55;;;;;;;8.80;1.70;;;;;;;23.19;46.54;99963.81;6094710;23;20009;-82
2022/06/26 08:40:21;;;;;;;8.07;1.40;;;;;;;22.64;48.02;99968.13;6094646;23;19998;-82
2022/06/26 08:42:52;;;;;;;12.77;2.15;;;;;;;23.41;46.71;99971.75;6095045;23;20334;-81
2022/06/26 08:45:19;;;;;;;8.48;1.85;;;;;;;24.20;44.86;99965.84;6095287;23;20006;-83
2022/06/26 08:47:49;;;;;;;9.45;2.47;;;;;;;22.66;47.37;99969.59;6094218;23;20021;-84
2022/06/26 08:50:14;;;;;;;8.40;1.52;;;;;;;23.04;47.63;99963.09;6095479;23;20034;-83
2022/06/26 08:52:42;;;;;;;14.63;2.63;;;;;;;24.26;45.26;99966.88;6094516;23;20009;-83
2022/06/26 08:55:08;;;;;;;11.55;2.03;;;;;;;27.00;39.69;99964.75;6094515;23;20010;-83
2022/06/26 08:57:34;;;;;;;9.90;1.90;;;;;;;27.36;38.79;99975.78;6095372;23;19998;-84
2022/06/26 09:00:00;;;;;;;10.43;1.83;;;;;;;28.18;37.75;99968.09;6094891;23;20129;-83
2022/06/26 09:02:25;;;;;;;12.07;1.85;;;;;;;29.53;36.09;99952.00;6094571;23;20003;-83
2022/06/26 09:04:51;;;;;;;9.65;2.03;;;;;;;31.03;34.59;99965.13;6094907;23;20005;-84
2022/06/26 09:07:18;;;;;;;8.93;1.90;;;;;;;27.92;37.83;99974.69;6095310;23;20338;-83
2022/06/26 09:09:44;;;;;;;10.35;2.10;;;;;;;29.35;36.98;99979.22;6093243;23;20386;-83
2022/06/26 09:12:09;;;;;;;9.10;1.70;;;;;;;30.22;35.04;99967.38;6094648;23;20010;-83
2022/06/26 09:14:34;;;;;;;6.97;1.80;;;;;;;29.74;35.62;99974.06;6095412;23;20449;-83
2022/06/26 09:17:00;;;;;;;12.80;2.13;;;;;;;29.33;35.95;99968.63;6095397;23;20326;-83
2022/06/26 09:19:33;;;;;;;8.57;1.58;;;;;;;29.77;35.54;99965.47;6095102;23;20452;-83
2022/06/26 09:22:07;;;;;;;5.43;1.65;;;;;;;30.21;34.35;99969.25;6096328;23;20002;-84
2022/06/26 09:24:36;;;;;;;10.90;2.38;;;;;;;29.85;34.49;99965.06;6094706;23;19998;-83
2022/06/26 09:27:14;;;;;;;7.85;1.88;;;;;;;30.71;34.59;99974.91;6096984;23;20026;-83
2022/06/26 09:29:41;;;;;;;9.98;2.38;;;;;;;31.20;34.47;99981.38;6097203;23;20081;-84
2022/06/26 09:32:12;;;;;;;9.48;1.85;;;;;;;31.89;31.91;99998.19;6097186;23;20337;-84
2022/06/26 09:34:41;;;;;;;13.63;1.80;;;;;;;28.43;37.05;99994.06;6096927;23;20002;-83
2022/06/26 09:37:07;;;;;;;8.65;1.65;;;;;;;28.47;38.61;99990.66;6096622;23;19998;-83
2022/06/26 09:39:33;;;;;;;7.72;1.95;;;;;;;27.20;39.37;99996.06;6096675;23;20013;-83
2022/06/26 09:42:27;;;;;;;10.75;2.15;;;;;;;25.61;43.20;99996.94;6096709;23;20030;-83
2022/06/26 09:44:54;;;;;;;10.15;1.95;;;;;;;25.59;42.46;100003.53;6094705;23;20011;-83
2022/06/26 09:47:31;;;;;;;5.75;1.33;;;;;;;25.87;41.99;100024.72;6094941;23;20526;-83
2022/06/26 09:49:59;;;;;;;7.93;1.88;;;;;;;26.07;41.50;100022.81;6096348;23;20006;-83
2022/06/26 09:52:28;;;;;;;7.03;1.90;;;;;;;26.91;40.28;100017.25;6096636;23;20086;-83
2022/06/26 09:54:55;;;;;;;8.52;1.83;;;;;;;27.92;37.82;99998.97;6096779;23;20050;-83
2022/06/26 09:57:21;;;;;;;7.25;1.35;;;;;;;27.81;37.28;100005.13;6096745;23;20002;-83
2022/06/26 09:59:47;;;;;;;11.13;1.85;;;;;;;29.75;34.36;100002.78;6096606;23;20034;-83
2022/06/26 10:07:51;;;;;;;8.68;1.80;;;;;;;25.70;41.74;100001.00;6095876;23;20470;-83
2022/06/26 10:10:19;;;;;;;17.85;1.60;;;;;;;25.43;41.95;100005.66;6096470;23;20013;-84
2022/06/26 10:12:52;;;;;;;8.60;1.48;;;;;;;26.73;39.36;99996.50;6096340;23;20014;-84
2022/06/26 10:15:20;;;;;;;10.52;1.30;;;;;;;27.71;36.40;99994.88;6096813;23;20377;-84
2022/06/26 10:18:07;;;;;;;8.23;1.65;;;;;;;29.26;34.14;99979.56;6096753;23;20081;-84
2022/06/26 10:20:36;;;;;;;4.70;1.65;;;;;;;28.58;31.61;100009.88;6094870;23;20082;-84
2022/06/26 10:23:01;;;;;;;8.07;1.85;;;;;;;29.30;32.55;99988.03;6096057;23;20329;-84
2022/06/26 10:25:29;;;;;;;8.23;1.40;;;;;;;28.07;33.91;99993.97;6095896;23;20012;-84
2022/06/26 10:27:55;;;;;;;11.02;1.70;;;;;;;28.55;33.80;100004.94;6096274;23;20073;-84
2022/06/26 10:30:25;;;;;;;7.50;1.73;;;;;;;28.07;34.68;100004.78;6094940;23;20598;-83
2022/06/26 10:33:07;;;;;;;9.85;1.92;;;;;;;27.06;36.70;100000.75;6096048;23;20081;-84
2022/06/26 10:35:40;;;;;;;5.32;1.42;;;;;;;27.01;37.29;100006.78;6095961;23;20058;-83
2022/06/26 10:38:21;;;;;;;9.43;1.83;;;;;;;26.01;38.11;100010.22;6096195;23;19994;-84
2022/06/26 10:44:10;;;;;;;8.02;1.90;;;;;;;25.11;39.75;100002.00;6095707;23;20049;-83
2022/06/26 10:46:46;;;;;;;10.60;2.25;;;;;;;25.58;39.00;100002.72;6064553;23;20090;-83
2022/06/26 10:49:11;;;;;;;7.03;1.40;;;;;;;25.53;39.36;100000.69;6094473;23;20333;-83
2022/06/26 10:51:42;;;;;;;10.18;1.52;;;;;;;25.13;39.78;100010.66;6095242;23;20077;-83
2022/06/26 10:54:19;;;;;;;8.10;1.40;;;;;;;24.99;39.89;99999.13;6093758;23;20082;-83
2022/06/26 10:56:46;;;;;;;7.03;1.45;;;;;;;25.67;39.20;99998.75;6095689;23;20434;-83
2022/06/26 10:59:11;;;;;;;9.48;1.70;;;;;;;24.41;40.86;100013.13;6096908;23;20006;-83
2022/06/26 11:01:37;;;;;;;6.25;1.20;;;;;;;23.34;41.86;100011.88;6097432;23;20013;-83
2022/06/26 11:04:02;;;;;;;6.32;1.25;;;;;;;23.78;42.03;100015.25;6097099;23;20006;-83
2022/06/26 11:06:28;;;;;;;5.30;2.00;;;;;;;23.31;42.02;100023.00;6095245;23;20017;-83
2022/06/26 11:08:54;;;;;;;7.25;1.20;;;;;;;23.04;41.06;100012.09;6093665;23;20376;-84
2022/06/26 11:11:31;;;;;;;10.55;1.50;;;;;;;23.19;41.18;100012.00;6094766;23;20403;-83
2022/06/26 11:14:08;;;;;;;3.88;1.20;;;;;;;22.71;42.16;100027.88;6093246;23;20019;-84
2022/06/26 11:16:44;;;;;;;7.70;1.38;;;;;;;22.61;42.77;100005.97;6094893;23;20002;-83
2022/06/26 11:19:30;;;;;;;12.40;2.40;;;;;;;22.18;44.63;100044.22;6095271;23;20386;-84
2022/06/26 11:22:06;;;;;;;13.88;2.25;;;;;;;22.75;43.39;100019.28;6094887;23;20078;-84
2022/06/26 11:24:31;;;;;;;5.63;1.80;;;;;;;23.13;43.53;100031.53;6093062;23;20041;-84
2022/06/26 11:26:57;;;;;;;12.25;2.13;;;;;;;23.07;43.72;100010.91;6094389;23;20337;-84
2022/06/26 11:29:23;;;;;;;9.50;1.70;;;;;;;23.31;42.66;100029.19;6095521;23;20430;-83
2022/06/26 11:31:50;;;;;;;7.93;1.63;;;;;;;24.01;42.95;100018.38;6094357;23;20003;-84
2022/06/26 11:34:16;;;;;;;15.23;2.10;;;;;;;23.58;42.39;100029.34;6095269;23;20007;-84
2022/06/26 11:37:02;;;;;;;5.50;1.50;;;;;;;23.64;41.67;100023.19;6094173;23;20003;-83
2022/06/26 11:39:38;;;;;;;6.45;1.13;;;;;;;24.13;39.93;100007.91;6094849;23;20034;-84